sensor_id;sensor_type;location;lat;lon;timestamp;temperature;humidity
75500;DHT22;64076;51.466;7.260;2023-03-01T00:01:25;19.40;25.40
75500;DHT22;64076;51.466;7.260;2023-03-01T00:03:52;19.30;25.40
75500;DHT22;64076;51.466;7.260;2023-03-01T00:06:18;19.30;25.40
75500;DHT22;64076;51.466;7.260;2023-03-01T00:08:44;19.30;25.40
75500;DHT22;64076;51.466;7.260;2023-03-01T00:11:12;19.30;25.40
75500;DHT22;64076;51.466;7.260;2023-03-01T02:30:48;19.10;25.40
75500;DHT22;64076;51.466;7.260;2023-03-01T03:03:40;19.20;25.40
75500;DHT22;64076;51.466;7.260;2023-03-01T03:06:06;19.10;25.40
75500;DHT22;64076;51.466;7.260;2023-03-01T03:08:32;19.00;25.40
75500;DHT22;64076;51.466;7.260;2023-03-01T04:36:44;19.00;25.50
75500;DHT22;64076;51.466;7.260;2023-03-01T04:39:10;19.00;25.50
75500;DHT22;64076;51.466;7.260;2023-03-01T04:49:01;19.00;25.40
75500;DHT22;64076;51.466;7.260;2023-03-01T04:51:27;19.00;25.40
75500;DHT22;64076;51.466;7.260;2023-03-01T04:53:52;19.00;25.40
75500;DHT22;64076;51.466;7.260;2023-03-01T04:56:18;19.00;25.40
75500;DHT22;64076;51.466;7.260;2023-03-01T04:58:44;19.00;25.40
75500;DHT22;64076;51.466;7.260;2023-03-01T05:01:12;19.00;25.40
75500;DHT22;64076;51.466;7.260;2023-03-01T05:03:41;19.00;25.40
75500;DHT22;64076;51.466;7.260;2023-03-01T05:11:02;18.90;25.40
75500;DHT22;64076;51.466;7.260;2023-03-01T05:13:28;18.90;25.40
75500;DHT22;64076;51.466;7.260;2023-03-01T05:18:22;18.90;25.40
75500;DHT22;64076;51.466;7.260;2023-03-01T05:20:51;19.00;25.40
75500;DHT22;64076;51.466;7.260;2023-03-01T05:33:04;19.00;25.40
75500;DHT22;64076;51.466;7.260;2023-03-01T05:52:47;19.00;25.40
75500;DHT22;64076;51.466;7.260;2023-03-01T05:55:14;18.90;25.40
75500;DHT22;64076;51.466;7.260;2023-03-01T05:57:40;18.90;25.30
75500;DHT22;64076;51.466;7.260;2023-03-01T06:00:07;18.90;25.40
75500;DHT22;64076;51.466;7.260;2023-03-01T06:02:32;18.90;25.30
75500;DHT22;64076;51.466;7.260;2023-03-01T06:04:58;18.90;25.40
75500;DHT22;64076;51.466;7.260;2023-03-01T06:14:42;18.90;25.40
75500;DHT22;64076;51.466;7.260;2023-03-01T06:19:34;18.80;25.40
75500;DHT22;64076;51.466;7.260;2023-03-01T06:21:59;18.80;25.30
75500;DHT22;64076;51.466;7.260;2023-03-01T06:24:25;18.80;25.30
75500;DHT22;64076;51.466;7.260;2023-03-01T06:26:53;18.90;25.20
75500;DHT22;64076;51.466;7.260;2023-03-01T06:29:19;18.90;25.10
75500;DHT22;64076;51.466;7.260;2023-03-01T06:31:44;19.00;25.10
75500;DHT22;64076;51.466;7.260;2023-03-01T06:34:11;19.00;25.00
75500;DHT22;64076;51.466;7.260;2023-03-01T06:36:39;19.10;25.00
75500;DHT22;64076;51.466;7.260;2023-03-01T06:39:04;19.10;24.90
75500;DHT22;64076;51.466;7.260;2023-03-01T06:41:31;19.20;24.90
75500;DHT22;64076;51.466;7.260;2023-03-01T06:43:56;19.30;24.80
75500;DHT22;64076;51.466;7.260;2023-03-01T06:46:22;19.50;24.70
75500;DHT22;64076;51.466;7.260;2023-03-01T06:48:47;19.70;24.60
75500;DHT22;64076;51.466;7.260;2023-03-01T06:51:13;19.80;24.50
75500;DHT22;64076;51.466;7.260;2023-03-01T06:53:38;19.90;24.40
75500;DHT22;64076;51.466;7.260;2023-03-01T06:56:04;20.00;24.30
75500;DHT22;64076;51.466;7.260;2023-03-01T06:58:29;20.20;24.10
75500;DHT22;64076;51.466;7.260;2023-03-01T07:00:55;20.30;24.10
75500;DHT22;64076;51.466;7.260;2023-03-01T07:03:21;20.30;24.10
75500;DHT22;64076;51.466;7.260;2023-03-01T07:05:49;20.30;24.10
75500;DHT22;64076;51.466;7.260;2023-03-01T07:08:15;20.30;24.10
75500;DHT22;64076;51.466;7.260;2023-03-01T07:17:58;20.40;24.00
75500;DHT22;64076;51.466;7.260;2023-03-01T07:20:24;20.50;23.90
75500;DHT22;64076;51.466;7.260;2023-03-01T07:22:51;20.50;23.90
75500;DHT22;64076;51.466;7.260;2023-03-01T07:25:17;20.50;23.90
75500;DHT22;64076;51.466;7.260;2023-03-01T07:27:43;20.60;23.90
75500;DHT22;64076;51.466;7.260;2023-03-01T07:30:09;20.60;23.90
